createdAt,value
2023-04-19T00:01:57.340Z,25.15
2023-04-19T00:04:02.746Z,25.15
2023-04-19T00:06:08.404Z,25.12
2023-04-19T00:08:13.644Z,25.12
2023-04-19T00:10:18.717Z,25.12
2023-04-19T00:12:23.984Z,25.12
2023-04-19T00:14:28.993Z,25.1
2023-04-19T00:16:34.186Z,25.11
2023-04-19T00:18:39.446Z,25.09
2023-04-19T00:20:44.588Z,25.09
2023-04-19T00:22:49.654Z,25.07
2023-04-19T00:24:54.749Z,25.05
2023-04-19T00:26:59.873Z,25.04
2023-04-19T00:29:05.050Z,25.03
2023-04-19T00:31:10.168Z,25.02
2023-04-19T00:33:15.434Z,25.01
2023-04-19T00:35:20.642Z,25
2023-04-19T00:37:25.677Z,24.98
2023-04-19T00:39:30.812Z,24.97
2023-04-19T00:41:35.903Z,24.96
2023-04-19T00:43:40.896Z,24.95
2023-04-19T00:45:45.970Z,24.94
2023-04-19T00:47:51.260Z,24.93
2023-04-19T00:49:56.484Z,24.92
2023-04-19T00:52:01.514Z,24.91
2023-04-19T00:54:06.542Z,24.9
2023-04-19T00:56:11.600Z,24.89
2023-04-19T00:58:16.664Z,24.88
2023-04-19T01:00:21.722Z,24.88
2023-04-19T01:02:26.963Z,24.89
2023-04-19T01:04:34.808Z,24.88
2023-04-19T01:06:40.264Z,24.87
2023-04-19T01:08:45.259Z,24.85
2023-04-19T01:10:50.316Z,24.84
2023-04-19T01:12:55.329Z,24.83
2023-04-19T01:15:00.356Z,24.82
2023-04-19T01:17:05.433Z,24.81
2023-04-19T01:19:10.626Z,24.81
2023-04-19T01:21:15.661Z,24.81
2023-04-19T01:23:20.739Z,24.78
2023-04-19T01:25:25.761Z,24.76
2023-04-19T01:27:30.837Z,24.76
2023-04-19T01:29:35.897Z,24.75
2023-04-19T01:31:40.971Z,24.74
2023-04-19T01:33:46.208Z,24.74
2023-04-19T01:35:51.281Z,24.73
2023-04-19T01:37:56.423Z,24.71
2023-04-19T01:40:01.646Z,24.69
2023-04-19T01:42:06.676Z,24.66
2023-04-19T01:44:11.795Z,24.66
2023-04-19T01:46:17.469Z,24.64
2023-04-19T01:48:22.682Z,24.61
2023-04-19T01:50:27.732Z,24.58
2023-04-19T01:52:32.794Z,24.57
2023-04-19T01:54:37.920Z,24.54
2023-04-19T01:56:42.998Z,24.53
2023-04-19T01:58:48.060Z,24.52
2023-04-19T02:00:53.147Z,24.5
2023-04-19T02:02:58.631Z,24.5
2023-04-19T02:05:04.339Z,24.49
2023-04-19T02:07:09.498Z,24.5
2023-04-19T02:09:14.515Z,24.48
2023-04-19T02:11:19.535Z,24.46
2023-04-19T02:13:24.602Z,24.45
2023-04-19T02:15:29.704Z,24.46
2023-04-19T02:17:34.748Z,24.45
2023-04-19T02:19:40.023Z,24.44
2023-04-19T02:21:45.073Z,24.44
2023-04-19T02:23:50.075Z,24.41
2023-04-19T02:25:55.152Z,24.39
2023-04-19T02:28:00.236Z,24.36
2023-04-19T02:30:05.361Z,24.34
2023-04-19T02:32:10.554Z,24.31
2023-04-19T02:34:15.807Z,24.29
2023-04-19T02:36:21.718Z,24.28
2023-04-19T02:38:26.741Z,24.26
2023-04-19T02:40:31.814Z,24.24
2023-04-19T02:42:36.996Z,24.24
2023-04-19T02:44:42.031Z,24.23
2023-04-19T02:46:47.194Z,24.21
2023-04-19T02:48:52.237Z,24.18
2023-04-19T02:50:57.436Z,24.17
2023-04-19T02:53:02.451Z,24.14
2023-04-19T02:55:15.569Z,24.11
2023-04-19T02:57:20.574Z,24.13
2023-04-19T02:59:25.724Z,24.11
2023-04-19T03:01:30.850Z,24.1
2023-04-19T03:03:36.137Z,24.07
2023-04-19T03:05:41.563Z,24.07
2023-04-19T03:07:46.632Z,24.07
2023-04-19T03:09:51.768Z,24.04
2023-04-19T03:11:56.798Z,24.03
2023-04-19T03:14:01.978Z,24.01
2023-04-19T03:16:07.085Z,24.01
2023-04-19T03:18:12.419Z,23.99
2023-04-19T03:20:17.457Z,23.97
2023-04-19T03:22:22.470Z,23.96
2023-04-19T03:24:27.632Z,23.94
2023-04-19T03:26:32.627Z,23.94
2023-04-19T03:28:37.649Z,23.93
2023-04-19T03:30:42.759Z,23.93
2023-04-19T03:32:47.908Z,23.93
2023-04-19T03:34:53.088Z,23.93
2023-04-19T03:36:58.119Z,23.92
2023-04-19T03:39:03.291Z,23.89
2023-04-19T03:41:08.336Z,23.88
2023-04-19T03:43:13.611Z,23.87
2023-04-19T03:45:18.720Z,23.86
2023-04-19T03:47:23.746Z,23.83
2023-04-19T03:49:28.938Z,23.82
2023-04-19T03:51:33.954Z,23.81
2023-04-19T03:53:38.990Z,23.81
2023-04-19T03:55:44.065Z,23.8
2023-04-19T03:57:49.189Z,23.79
2023-04-19T03:59:54.335Z,23.78
2023-04-19T04:01:59.544Z,23.77
2023-04-19T04:04:05.382Z,23.77
2023-04-19T04:06:10.994Z,23.74
2023-04-19T04:08:16.050Z,23.73
2023-04-19T04:10:21.088Z,23.74
2023-04-19T04:12:26.167Z,23.73
2023-04-19T04:14:31.267Z,23.72
2023-04-19T04:16:36.332Z,23.69
2023-04-19T04:18:41.766Z,23.69
2023-04-19T04:20:46.859Z,23.68
2023-04-19T04:22:51.893Z,23.67
2023-04-19T04:24:56.933Z,23.66
2023-04-19T04:27:02.079Z,23.66
2023-04-19T04:29:07.124Z,23.66
2023-04-19T04:31:12.269Z,23.66
2023-04-19T04:33:17.477Z,23.65
2023-04-19T04:35:22.508Z,23.63
2023-04-19T04:37:27.578Z,23.61
2023-04-19T04:39:32.581Z,23.61
2023-04-19T04:41:37.626Z,23.6
2023-04-19T04:43:42.692Z,23.6
2023-04-19T04:45:47.728Z,23.59
2023-04-19T04:47:52.939Z,23.55
2023-04-19T04:49:58.165Z,23.58
2023-04-19T04:52:03.204Z,23.58
2023-04-19T04:54:08.206Z,23.59
2023-04-19T04:56:13.408Z,23.58
2023-04-19T04:58:20.416Z,23.56
2023-04-19T05:00:25.575Z,23.55
2023-04-19T05:02:30.825Z,23.57
2023-04-19T05:04:36.440Z,23.67
2023-04-19T05:06:41.821Z,23.81
2023-04-19T05:08:46.851Z,23.94
2023-04-19T05:10:51.850Z,24.04
2023-04-19T05:12:56.920Z,24.13
2023-04-19T05:15:02.004Z,24.24
2023-04-19T05:17:07.201Z,24.32
2023-04-19T05:19:12.356Z,24.4
2023-04-19T05:21:17.416Z,24.48
2023-04-19T05:23:22.453Z,24.55
2023-04-19T05:25:27.697Z,24.59
2023-04-19T05:27:32.806Z,24.66
2023-04-19T05:29:37.843Z,24.7
2023-04-19T05:31:42.941Z,24.72
2023-04-19T05:33:48.236Z,24.75
2023-04-19T05:35:53.250Z,24.79
2023-04-19T05:37:58.322Z,24.82
2023-04-19T05:40:03.429Z,24.86
2023-04-19T05:42:08.484Z,24.88
2023-04-19T05:44:13.807Z,24.9
2023-04-19T05:46:20.043Z,24.96
2023-04-19T05:48:25.328Z,25.03
2023-04-19T05:50:30.387Z,25.09
2023-04-19T05:52:35.432Z,25.14
2023-04-19T05:54:40.652Z,25.14
2023-04-19T05:56:45.914Z,25.17
2023-04-19T05:58:51.023Z,25.18
2023-04-19T06:00:56.027Z,25.21
2023-04-19T06:03:01.358Z,25.23
2023-04-19T06:05:10.132Z,25.25
2023-04-19T06:07:30.620Z,25.28
2023-04-19T06:09:46.507Z,25.32
2023-04-19T06:11:52.032Z,25.36
2023-04-19T06:13:57.168Z,25.36
2023-04-19T06:16:02.225Z,25.38
2023-04-19T06:18:07.685Z,25.39
2023-04-19T06:20:21.602Z,25.43
2023-04-19T06:22:26.670Z,25.43
2023-04-19T06:24:32.430Z,25.42
2023-04-19T06:26:39.262Z,25.44
2023-04-19T06:28:44.381Z,25.45
2023-04-19T06:30:49.491Z,25.46
2023-04-19T06:32:54.692Z,25.48
2023-04-19T06:34:59.869Z,25.47
2023-04-19T06:37:04.967Z,25.46
2023-04-19T06:39:09.983Z,25.47
2023-04-19T06:41:14.969Z,25.52
2023-04-19T06:43:19.956Z,25.56
2023-04-19T06:45:25.178Z,25.56
2023-04-19T06:47:30.285Z,25.59
2023-04-19T06:49:38.476Z,25.53
2023-04-19T06:51:43.480Z,25.53
2023-04-19T06:53:48.588Z,25.59
2023-04-19T06:55:53.520Z,25.62
2023-04-19T06:57:58.466Z,25.66
2023-04-19T07:00:03.423Z,25.67
2023-04-19T07:02:08.471Z,25.66
2023-04-19T07:04:14.020Z,25.68
2023-04-19T07:06:20.759Z,25.7
2023-04-19T07:08:30.058Z,25.68
2023-04-19T07:10:53.303Z,25.56
2023-04-19T07:12:58.356Z,25.48
2023-04-19T07:15:03.447Z,25.34
2023-04-19T07:17:08.610Z,25.28
2023-04-19T07:19:13.717Z,25.21
2023-04-19T07:21:18.755Z,25.09
2023-04-19T07:23:23.747Z,25.02
2023-04-19T07:25:28.789Z,24.9
2023-04-19T07:27:34.203Z,24.81
2023-04-19T07:29:39.257Z,24.71
2023-04-19T07:31:44.372Z,24.65
2023-04-19T07:33:49.686Z,24.6
2023-04-19T07:35:54.838Z,24.57
2023-04-19T07:38:00.015Z,24.57
2023-04-19T07:40:05.143Z,24.55
2023-04-19T07:42:10.233Z,24.52
2023-04-19T07:44:15.565Z,24.48
2023-04-19T07:46:21.665Z,24.44
2023-04-19T07:48:26.969Z,24.42
2023-04-19T07:50:32.016Z,24.4
2023-04-19T07:52:37.217Z,24.37
2023-04-19T07:54:42.333Z,24.34
2023-04-19T07:56:47.412Z,24.34
2023-04-19T07:59:00.576Z,24.34
2023-04-19T08:01:13.548Z,24.37
2023-04-19T08:03:18.881Z,24.39
2023-04-19T08:05:24.725Z,24.36
2023-04-19T08:07:30.569Z,24.32
2023-04-19T08:09:35.643Z,24.33
2023-04-19T08:11:40.983Z,24.33
2023-04-19T08:13:55.946Z,24.33
2023-04-19T08:17:11.303Z,24.32
2023-04-19T08:19:30.682Z,24.29
2023-04-19T08:21:40.960Z,24.28
2023-04-19T08:23:48.460Z,24.25
2023-04-19T08:25:57.471Z,24.26
2023-04-19T08:28:02.597Z,24.26
2023-04-19T08:30:07.652Z,24.24
2023-04-19T08:32:12.703Z,24.22
2023-04-19T08:34:18.003Z,24.22
2023-04-19T08:36:32.937Z,24.18
2023-04-19T08:39:06.856Z,24.15
2023-04-19T08:41:36.549Z,24.13
2023-04-19T08:43:41.815Z,24.12
2023-04-19T08:45:47.067Z,24.1
2023-04-19T08:48:00.480Z,24.07
2023-04-19T08:50:11.658Z,24.04
2023-04-19T08:52:54.674Z,23.98
2023-04-19T08:55:15.416Z,23.95
2023-04-19T08:57:20.558Z,23.93
2023-04-19T08:59:25.629Z,23.92
2023-04-19T09:01:35.771Z,23.89
2023-04-19T09:03:51.434Z,23.86
2023-04-19T09:06:39.504Z,23.84
2023-04-19T09:08:45.679Z,23.82
2023-04-19T09:10:50.694Z,23.82
2023-04-19T09:12:56.245Z,23.83
2023-04-19T09:15:02.466Z,23.83
2023-04-19T09:17:07.810Z,23.82
2023-04-19T09:19:22.885Z,23.8
2023-04-19T09:21:30.152Z,23.78
2023-04-19T09:23:35.386Z,23.76
2023-04-19T09:25:59.107Z,23.74
2023-04-19T09:28:26.790Z,23.72
2023-04-19T09:30:35.896Z,23.7
2023-04-19T09:33:02.740Z,23.69
2023-04-19T09:35:08.300Z,23.69
2023-04-19T09:37:21.227Z,23.7
2023-04-19T09:39:41.699Z,23.66
2023-04-19T09:41:46.761Z,23.66
2023-04-19T09:44:02.202Z,23.66
2023-04-19T09:47:30.194Z,23.68
2023-04-19T09:49:45.847Z,23.67
2023-04-19T09:51:54.231Z,23.69
2023-04-19T09:53:59.285Z,23.7
2023-04-19T09:56:04.638Z,23.68
2023-04-19T09:58:09.757Z,23.64
2023-04-19T10:00:15.084Z,23.66
2023-04-19T10:02:20.372Z,23.64
2023-04-19T10:04:38.068Z,23.64
2023-04-19T10:07:30.430Z,23.63
2023-04-19T10:09:40.130Z,23.62
2023-04-19T10:12:06.442Z,23.62
2023-04-19T10:15:01.416Z,23.6
2023-04-19T10:17:06.588Z,23.58
2023-04-19T10:19:11.785Z,23.58
2023-04-19T10:21:17.339Z,23.62
2023-04-19T10:23:22.495Z,23.62
2023-04-19T10:25:27.592Z,23.61
2023-04-19T10:27:32.721Z,23.59
2023-04-19T10:29:37.820Z,23.58
2023-04-19T10:31:43.066Z,23.66
2023-04-19T10:33:48.404Z,23.76
2023-04-19T10:35:53.503Z,23.86
2023-04-19T10:37:58.565Z,23.97
2023-04-19T10:40:03.639Z,24.08
2023-04-19T10:42:08.713Z,24.17
2023-04-19T10:44:13.779Z,24.27
2023-04-19T10:46:18.863Z,24.38
2023-04-19T10:48:24.085Z,24.43
2023-04-19T10:52:55.603Z,24.56
2023-04-19T10:55:00.692Z,24.63
2023-04-19T10:57:06.128Z,24.66
2023-04-19T10:59:11.686Z,24.72
2023-04-19T11:01:17.010Z,24.78
2023-04-19T11:03:22.282Z,24.78
2023-04-19T11:05:27.825Z,24.81
2023-04-19T11:07:32.905Z,24.82
2023-04-19T11:09:37.914Z,24.87
2023-04-19T11:11:43.122Z,24.89
2023-04-19T11:13:48.184Z,24.93
2023-04-19T11:15:53.238Z,24.94
2023-04-19T11:18:11.832Z,24.95
2023-04-19T11:20:17.572Z,24.98
2023-04-19T11:22:22.640Z,25
2023-04-19T11:24:27.679Z,25.03
2023-04-19T11:26:32.843Z,25.04
2023-04-19T11:28:38.018Z,25.1
2023-04-19T11:30:43.113Z,25.12
2023-04-19T11:32:48.370Z,25.1
2023-04-19T11:34:53.731Z,25.14
2023-04-19T11:36:58.909Z,25.16
2023-04-19T11:39:04.055Z,25.17
2023-04-19T11:41:09.193Z,25.23
2023-04-19T11:43:14.310Z,25.26
2023-04-19T11:45:28.394Z,25.26
2023-04-19T11:47:41.250Z,25.28
2023-04-19T11:49:46.404Z,25.31
2023-04-19T11:51:51.587Z,25.3
2023-04-19T11:53:56.699Z,25.27
2023-04-19T11:56:01.757Z,25.26
2023-04-19T11:58:06.944Z,25.28
2023-04-19T12:00:12.232Z,25.33
2023-04-19T12:02:17.569Z,25.37
2023-04-19T12:04:23.113Z,25.41
2023-04-19T12:06:28.841Z,25.47
2023-04-19T12:08:34.091Z,25.49
2023-04-19T12:10:39.273Z,25.52
2023-04-19T12:12:44.336Z,25.55
2023-04-19T12:14:49.422Z,25.56
2023-04-19T12:16:54.604Z,25.57
2023-04-19T12:18:59.849Z,25.6
2023-04-19T12:21:04.981Z,25.63
2023-04-19T12:23:10.091Z,25.61
2023-04-19T12:25:15.199Z,25.62
2023-04-19T12:27:20.342Z,25.63
2023-04-19T12:29:25.462Z,25.66
2023-04-19T12:31:30.545Z,25.66
2023-04-19T12:33:35.758Z,25.67
2023-04-19T12:35:40.839Z,25.67
2023-04-19T12:37:45.901Z,25.7
2023-04-19T12:39:51.015Z,25.72
2023-04-19T12:41:59.202Z,25.76
2023-04-19T12:44:04.325Z,25.76
2023-04-19T12:46:09.555Z,25.74
2023-04-19T12:48:14.869Z,25.74
2023-04-19T12:50:19.966Z,25.77
2023-04-19T12:52:25.044Z,25.81
2023-04-19T12:54:30.097Z,25.82
2023-04-19T12:56:35.197Z,25.82
2023-04-19T12:58:40.312Z,25.84
2023-04-19T13:00:45.483Z,25.86
2023-04-19T13:02:50.772Z,25.87
2023-04-19T13:04:56.443Z,25.88
2023-04-19T13:07:02.077Z,25.89
2023-04-19T13:09:14.095Z,25.89
2023-04-19T13:11:19.872Z,25.92
2023-04-19T13:13:25.045Z,25.91
2023-04-19T13:15:30.247Z,25.95
2023-04-19T13:17:35.399Z,25.96
2023-04-19T13:19:40.676Z,25.98
2023-04-19T13:21:45.822Z,25.98
2023-04-19T13:23:50.875Z,25.98
2023-04-19T13:25:56.005Z,25.96
2023-04-19T13:28:01.093Z,25.97
2023-04-19T13:30:06.197Z,25.98
2023-04-19T13:32:11.556Z,25.99
2023-04-19T13:34:16.924Z,26
2023-04-19T13:36:22.490Z,26.01
2023-04-19T13:38:27.689Z,26.03
2023-04-19T13:40:32.756Z,26.03
2023-04-19T13:42:37.909Z,26.04
2023-04-19T13:44:42.950Z,26.02
2023-04-19T13:46:48.046Z,26.02
2023-04-19T13:48:53.287Z,26.03
2023-04-19T13:50:58.476Z,26.02
2023-04-19T13:53:03.555Z,26.02
2023-04-19T13:55:08.865Z,26.02
2023-04-19T13:57:13.914Z,26.03
2023-04-19T13:59:18.948Z,26.03
2023-04-19T14:01:24.076Z,26.05
2023-04-19T14:03:29.529Z,26.07
2023-04-19T14:05:35.110Z,26.07
2023-04-19T14:07:40.236Z,26.06
2023-04-19T14:09:45.487Z,26.04
2023-04-19T14:11:50.707Z,26.01
2023-04-19T14:13:55.804Z,26
2023-04-19T14:16:01.040Z,25.98
2023-04-19T14:18:06.261Z,25.98
2023-04-19T14:20:11.546Z,25.99
2023-04-19T14:22:16.698Z,26
2023-04-19T14:24:21.788Z,25.95
2023-04-19T14:26:27.673Z,25.99
2023-04-19T14:28:32.982Z,25.97
2023-04-19T14:30:38.015Z,25.98
2023-04-19T14:32:43.196Z,25.96
2023-04-19T14:34:48.893Z,25.94
2023-04-19T14:36:53.977Z,25.94
2023-04-19T14:38:59.039Z,25.94
2023-04-19T14:41:04.285Z,25.94
2023-04-19T14:43:09.431Z,25.96
2023-04-19T14:45:14.531Z,25.95
2023-04-19T14:47:19.732Z,25.95
2023-04-19T14:49:24.860Z,25.87
2023-04-19T14:51:30.059Z,25.81
2023-04-19T14:53:35.101Z,25.79
2023-04-19T14:55:40.185Z,25.74
2023-04-19T14:57:45.411Z,25.68
2023-04-19T14:59:50.515Z,25.56
2023-04-19T15:01:55.735Z,25.44
2023-04-19T15:04:01.402Z,25.34
2023-04-19T15:06:07.059Z,25.29
2023-04-19T15:08:23.624Z,25.28
2023-04-19T15:10:36.365Z,25.24
2023-04-19T15:12:43.319Z,25.21
2023-04-19T15:14:48.393Z,25.07
2023-04-19T15:16:53.538Z,24.97
2023-04-19T15:18:58.662Z,24.94
2023-04-19T15:21:03.776Z,24.95
2023-04-19T15:23:09.058Z,24.96
2023-04-19T15:25:14.251Z,25.04
2023-04-19T15:27:19.421Z,25.07
2023-04-19T15:29:24.457Z,25
2023-04-19T15:31:29.651Z,25.02
2023-04-19T15:33:34.933Z,25.04
2023-04-19T15:35:40.021Z,25.06
2023-04-19T15:37:45.108Z,25.08
2023-04-19T15:39:50.230Z,25.12
2023-04-19T15:41:55.421Z,25.12
2023-04-19T15:44:00.569Z,25.09
2023-04-19T15:46:05.706Z,25.08
2023-04-19T15:48:11.031Z,25.06
2023-04-19T15:50:16.138Z,25.06
2023-04-19T15:52:21.229Z,25.05
2023-04-19T15:54:26.282Z,25.09
2023-04-19T15:56:31.401Z,25.08
2023-04-19T15:58:36.511Z,25.07
2023-04-19T16:00:41.722Z,25.06
2023-04-19T16:02:46.898Z,25.07
2023-04-19T16:04:52.412Z,25.07
2023-04-19T16:06:57.838Z,25.08
2023-04-19T16:09:03.011Z,25.08
2023-04-19T16:11:08.116Z,25.07
2023-04-19T16:13:13.348Z,25.04
2023-04-19T16:15:18.421Z,24.99
2023-04-19T16:17:23.540Z,24.93
2023-04-19T16:19:28.744Z,24.87
2023-04-19T16:21:33.913Z,24.86
2023-04-19T16:23:39.036Z,24.85
2023-04-19T16:25:44.081Z,24.81
2023-04-19T16:27:49.156Z,24.78
2023-04-19T16:29:54.211Z,24.81
2023-04-19T16:31:59.375Z,24.81
2023-04-19T16:34:04.697Z,24.8
2023-04-19T16:36:09.814Z,24.79
2023-04-19T16:38:14.950Z,24.76
2023-04-19T16:40:20.111Z,24.71
2023-04-19T16:42:25.322Z,24.65
2023-04-19T16:44:30.404Z,24.63
2023-04-19T16:46:35.564Z,24.59
2023-04-19T16:48:40.849Z,24.58
2023-04-19T16:50:45.910Z,24.52
2023-04-19T16:52:50.979Z,24.49
2023-04-19T16:54:56.074Z,24.46
2023-04-19T16:57:01.141Z,24.41
2023-04-19T16:59:06.333Z,24.4
2023-04-19T17:01:11.418Z,24.36
2023-04-19T17:03:16.790Z,24.31
2023-04-19T17:05:22.616Z,24.33
2023-04-19T17:07:27.822Z,24.33
2023-04-19T17:09:32.932Z,24.33
2023-04-19T17:11:38.054Z,24.28
2023-04-19T17:13:43.253Z,24.26
2023-04-19T17:15:48.334Z,24.25
2023-04-19T17:17:53.693Z,24.24
2023-04-19T17:19:59.021Z,24.21
2023-04-19T17:22:04.303Z,24.21
2023-04-19T17:24:09.880Z,24.23
2023-04-19T17:26:14.998Z,24.25
2023-04-19T17:28:20.067Z,24.27
2023-04-19T17:30:25.238Z,24.25
2023-04-19T17:32:30.357Z,24.28
2023-04-19T17:34:36.962Z,24.35
2023-04-19T17:36:42.261Z,24.45
2023-04-19T17:38:47.460Z,24.57
2023-04-19T17:40:52.618Z,24.67
2023-04-19T17:42:57.835Z,24.75
2023-04-19T17:45:02.906Z,24.84
2023-04-19T17:47:08.090Z,24.89
2023-04-19T17:49:13.154Z,24.94
2023-04-19T17:51:18.736Z,25.02
2023-04-19T17:53:23.962Z,25.06
2023-04-19T17:55:29.095Z,25.13
2023-04-19T17:57:34.215Z,25.17
2023-04-19T17:59:39.388Z,25.23
2023-04-19T18:01:44.508Z,25.24
2023-04-19T18:03:49.741Z,25.26
2023-04-19T18:05:55.294Z,25.3
2023-04-19T18:08:00.390Z,25.38
2023-04-19T18:10:05.422Z,25.44
2023-04-19T18:12:10.461Z,25.47
2023-04-19T18:14:15.557Z,25.49
2023-04-19T18:16:20.644Z,25.49
2023-04-19T18:18:26.014Z,25.48
2023-04-19T18:20:31.052Z,25.49
2023-04-19T18:22:36.153Z,25.57
2023-04-19T18:24:41.251Z,25.59
2023-04-19T18:26:46.321Z,25.62
2023-04-19T18:28:51.659Z,25.67
2023-04-19T18:30:56.743Z,25.69
2023-04-19T18:33:02.077Z,25.72
2023-04-19T18:35:07.443Z,25.73
2023-04-19T18:37:12.730Z,25.76
2023-04-19T18:39:18.030Z,25.78
2023-04-19T18:41:23.353Z,25.82
2023-04-19T18:43:28.459Z,25.84
2023-04-19T18:45:35.044Z,25.87
2023-04-19T18:47:40.522Z,25.92
2023-04-19T18:49:52.851Z,25.95
2023-04-19T18:52:09.369Z,25.97
2023-04-19T18:54:14.519Z,26.01
2023-04-19T18:56:19.625Z,26.03
2023-04-19T18:58:47.723Z,26.03
2023-04-19T19:00:52.866Z,26.04
2023-04-19T19:05:07.328Z,26.04
2023-04-19T19:07:33.572Z,26.04
2023-04-19T19:09:54.000Z,26.06
2023-04-19T19:12:04.390Z,26.11
2023-04-19T19:14:09.490Z,26.12
2023-04-19T19:16:15.756Z,26.1
2023-04-19T19:18:23.809Z,26.1
2023-04-19T19:20:30.456Z,26.13
2023-04-19T19:22:35.486Z,26.16
2023-04-19T19:24:41.065Z,26.17
2023-04-19T19:26:46.094Z,26.17
2023-04-19T19:28:51.276Z,26.05
2023-04-19T19:30:56.538Z,25.94
2023-04-19T19:33:01.902Z,25.79
2023-04-19T19:35:08.321Z,25.67
2023-04-19T19:37:13.648Z,25.54
2023-04-19T19:39:18.951Z,25.42
2023-04-19T19:41:56.213Z,25.33
2023-04-19T19:44:10.530Z,25.22
2023-04-19T19:46:15.712Z,25.17
2023-04-19T19:48:21.334Z,25.11
2023-04-19T19:51:01.939Z,25.04
2023-04-19T19:53:50.345Z,25.06
2023-04-19T19:55:56.748Z,25.04
2023-04-19T19:58:26.129Z,25.04
2023-04-19T20:03:01.005Z,24.97
2023-04-19T20:05:08.875Z,24.95
2023-04-19T20:10:04.458Z,24.93
2023-04-19T20:12:09.523Z,24.93
2023-04-19T20:14:14.623Z,24.92
2023-04-19T20:16:19.738Z,24.97
2023-04-19T20:18:25.078Z,24.94
2023-04-19T20:20:30.224Z,24.96
2023-04-19T20:22:35.337Z,24.97
2023-04-19T20:24:40.431Z,24.92
2023-04-19T20:26:45.463Z,24.9
2023-04-19T20:28:50.652Z,24.88
2023-04-19T20:30:55.769Z,24.87
2023-04-19T20:33:00.960Z,24.86
2023-04-19T20:35:06.266Z,24.86
2023-04-19T20:37:11.324Z,24.86
2023-04-19T20:39:16.739Z,24.85
2023-04-19T20:41:22.359Z,24.81
2023-04-19T20:43:27.594Z,24.82
2023-04-19T20:45:32.697Z,24.81
2023-04-19T20:47:37.908Z,24.8
2023-04-19T20:49:43.302Z,24.8
2023-04-19T20:51:48.335Z,24.76
2023-04-19T20:53:53.432Z,24.81
2023-04-19T20:55:58.547Z,24.82
2023-04-19T20:58:03.621Z,24.79
2023-04-19T21:00:08.697Z,24.77
2023-04-19T21:02:13.810Z,24.8
2023-04-19T21:04:19.146Z,24.8
2023-04-19T21:06:24.827Z,24.82
2023-04-19T21:08:30.004Z,24.82
2023-04-19T21:10:35.088Z,24.83
2023-04-19T21:12:40.183Z,24.86
2023-04-19T21:14:46.613Z,24.83
2023-04-19T21:16:53.675Z,24.78
2023-04-19T21:18:58.782Z,24.73
2023-04-19T21:21:03.842Z,24.72
2023-04-19T21:23:08.972Z,24.7
2023-04-19T21:25:14.058Z,24.71
2023-04-19T21:27:19.095Z,24.72
2023-04-19T21:29:24.158Z,24.73
2023-04-19T21:31:29.249Z,24.71
2023-04-19T21:33:34.529Z,24.66
2023-04-19T21:35:39.562Z,24.61
2023-04-19T21:37:44.618Z,24.56
2023-04-19T21:39:49.684Z,24.53
2023-04-19T21:41:54.710Z,24.5
2023-04-19T21:43:59.943Z,24.45
2023-04-19T21:46:05.218Z,24.4
2023-04-19T21:48:10.526Z,24.36
2023-04-19T21:50:15.690Z,24.31
2023-04-19T21:52:20.772Z,24.31
2023-04-19T21:54:33.185Z,24.26
2023-04-19T21:56:39.024Z,24.24
2023-04-19T21:58:44.183Z,24.19
2023-04-19T22:00:49.295Z,24.17
2023-04-19T22:02:54.748Z,24.13
2023-04-19T22:05:00.408Z,24.1
2023-04-19T22:07:05.542Z,24.09
2023-04-19T22:09:10.619Z,24.08
2023-04-19T22:11:15.728Z,24.07
2023-04-19T22:13:20.775Z,24.06
2023-04-19T22:15:25.926Z,24.05
2023-04-19T22:17:31.140Z,24.01
2023-04-19T22:19:36.376Z,24
2023-04-19T22:21:41.492Z,24.01
2023-04-19T22:23:46.541Z,23.98
2023-04-19T22:25:51.631Z,23.96
2023-04-19T22:27:56.741Z,23.95
2023-04-19T22:30:01.813Z,23.92
2023-04-19T22:32:06.858Z,23.91
2023-04-19T22:34:12.129Z,23.89
2023-04-19T22:36:17.218Z,23.89
2023-04-19T22:38:22.258Z,23.91
2023-04-19T22:40:27.320Z,23.88
2023-04-19T22:42:32.404Z,23.86
2023-04-19T22:44:37.539Z,23.87
2023-04-19T22:46:42.591Z,23.85
2023-04-19T22:48:47.890Z,23.86
2023-04-19T22:50:52.990Z,23.87
2023-04-19T22:52:58.087Z,23.87
2023-04-19T22:55:03.223Z,23.88
2023-04-19T22:57:08.347Z,23.84
2023-04-19T22:59:13.460Z,23.8
2023-04-19T23:01:19.422Z,23.76
2023-04-19T23:03:24.763Z,23.75
2023-04-19T23:05:30.002Z,23.78
2023-04-19T23:07:35.019Z,23.79
2023-04-19T23:09:40.220Z,23.77
2023-04-19T23:11:45.249Z,23.75
2023-04-19T23:13:50.376Z,23.72
2023-04-19T23:15:55.496Z,23.71
2023-04-19T23:18:00.681Z,23.71
2023-04-19T23:20:06.132Z,23.69
2023-04-19T23:22:11.269Z,23.7
2023-04-19T23:24:16.289Z,23.66
2023-04-19T23:26:21.404Z,23.66
2023-04-19T23:28:26.585Z,23.66
2023-04-19T23:30:31.660Z,23.64
2023-04-19T23:32:36.795Z,23.64
2023-04-19T23:34:42.218Z,23.62
2023-04-19T23:36:47.401Z,23.61
2023-04-19T23:38:52.437Z,23.62
2023-04-19T23:40:57.546Z,23.61
2023-04-19T23:43:02.766Z,23.58
2023-04-19T23:45:07.871Z,23.58
2023-04-19T23:47:13.041Z,23.53
2023-04-19T23:49:18.197Z,23.51
2023-04-19T23:51:23.888Z,23.52
2023-04-19T23:53:28.983Z,23.53
2023-04-19T23:55:34.014Z,23.53
2023-04-19T23:57:39.040Z,23.49
2023-04-19T23:59:44.124Z,23.5
